Yavi, Argentina
Current Conditions -  °F | °C
As of 11:15 AM on Thursday 29 Jan 2015 (Local Time) from SLTJ Reporting Station
Light Rain Light Rain  
Wind Chill: 61°   Ceiling: 2500
Heat Index: 61°   Visibility: 5mi
Dew Point: 59°   Wind: 0mph
Humidity: 94%   Direction: NA
Pressure: 30.3"   Gusts: NA
Location:  22.15°S, 65.46°W
Report Text: SLTJ 291415Z 00000KT 8000 -RA FEW015 BKN025 OVC070 16/15 Q1026
Loading
Personal Weather Stations






























Interactive Weather Map New forecast layout! Learn more

10-Day Weather Forecast

Advertisements
Track Severe Weather on mobile